Time;durP1;ratioP1;P1;durP2;ratioP2;P2;SDS_P1;SDS_P2;PMS_P1;PMS_P2;Temp;Humidity;BMP_temperature;BMP_pressure;BME280_temperature;BME280_humidity;BME280_pressure;Samples;Min_cycle;Max_cycle;Signal;HPM_P1;HPM_P2
2023/09/19 00:01:34;;;;;;;0.00;0.00;;;17.20;99.90;;;;;;5081586;28;20612;-80
2023/09/19 00:04:00;;;;;;;0.00;0.00;;;17.20;99.90;;;;;;5079694;28;20553;-82
2023/09/19 00:06:31;;;;;;;0.10;0.10;;;17.20;99.90;;;;;;5092594;28;20211;-83
2023/09/19 00:08:58;;;;;;;0.00;0.00;;;17.20;99.90;;;;;;5084775;28;20583;-84
2023/09/19 00:11:25;;;;;;;0.10;0.10;;;17.20;99.90;;;;;;5082459;28;20439;-83
2023/09/19 00:13:51;;;;;;;0.00;0.00;;;17.10;99.90;;;;;;5086292;28;20456;-84
2023/09/19 00:16:18;;;;;;;0.00;0.00;;;17.20;99.90;;;;;;5089448;28;20443;-84
2023/09/19 00:18:44;;;;;;;0.00;0.00;;;17.10;99.90;;;;;;5079321;28;20280;-82
2023/09/19 00:21:10;;;;;;;0.00;0.00;;;17.20;99.90;;;;;;5084741;28;20529;-83
2023/09/19 00:23:35;;;;;;;0.00;0.00;;;17.10;99.90;;;;;;5079875;28;20228;-82
2023/09/19 00:26:01;;;;;;;0.00;0.00;;;17.10;99.90;;;;;;5081279;28;20188;-82
2023/09/19 00:28:31;;;;;;;0.00;0.00;;;17.10;99.90;;;;;;5101410;28;20872;-82
2023/09/19 00:30:57;;;;;;;0.00;0.00;;;17.10;99.90;;;;;;5087661;28;20196;-83
2023/09/19 00:33:22;;;;;;;0.00;0.00;;;17.10;99.90;;;;;;5069101;28;20484;-83
2023/09/19 00:35:52;;;;;;;0.00;0.00;;;17.10;99.90;;;;;;5087679;28;20197;-83
2023/09/19 00:38:24;;;;;;;0.00;0.00;;;17.00;99.90;;;;;;5083810;28;20177;-82
2023/09/19 00:40:51;;;;;;;0.00;0.00;;;17.10;99.90;;;;;;5091652;28;20843;-81
2023/09/19 00:43:16;;;;;;;0.00;0.00;;;17.10;99.90;;;;;;5093159;28;20434;-83
2023/09/19 00:45:44;;;;;;;0.00;0.00;;;17.10;99.90;;;;;;5084937;28;20870;-81
2023/09/19 00:48:10;;;;;;;0.00;0.00;;;17.10;99.90;;;;;;5087000;28;20183;-82
2023/09/19 00:50:36;;;;;;;0.00;0.00;;;17.10;99.90;;;;;;5104405;28;20450;-82
2023/09/19 00:53:07;;;;;;;0.00;0.00;;;17.10;99.90;;;;;;5074050;28;20434;-84
2023/09/19 00:55:34;;;;;;;0.00;0.00;;;17.10;99.90;;;;;;5088663;28;20450;-83
2023/09/19 00:58:00;;;;;;;0.00;0.00;;;17.10;99.90;;;;;;5083849;28;20445;-81
2023/09/19 01:00:26;;;;;;;0.00;0.00;;;17.00;99.90;;;;;;5088178;28;20490;-82
2023/09/19 01:02:51;;;;;;;0.00;0.00;;;17.10;99.90;;;;;;5070666;28;20475;-83
2023/09/19 01:05:18;;;;;;;0.00;0.00;;;17.00;99.90;;;;;;5070326;28;20447;-83
2023/09/19 01:07:44;;;;;;;0.00;0.00;;;17.00;99.90;;;;;;5084860;28;20912;-82
2023/09/19 01:10:12;;;;;;;0.00;0.00;;;17.00;99.90;;;;;;5086912;28;20570;-84
2023/09/19 01:12:59;;;;;;;0.00;0.00;;;17.00;99.90;;;;;;5106146;28;20537;-85
2023/09/19 01:16:07;;;;;;;0.00;0.00;;;17.00;99.90;;;;;;5090826;28;20861;-82
2023/09/19 01:18:40;;;;;;;0.00;0.00;;;17.10;99.90;;;;;;5078426;28;20485;-83
2023/09/19 01:21:48;;;;;;;0.00;0.00;;;17.00;99.90;;;;;;5080521;28;20446;-84
2023/09/19 01:24:41;;;;;;;0.00;0.00;;;17.10;99.90;;;;;;5020636;28;20967;-84
2023/09/19 01:27:24;;;;;;;0.00;0.00;;;17.00;99.90;;;;;;5090639;28;20846;-83
2023/09/19 01:29:50;;;;;;;0.00;0.00;;;17.00;99.90;;;;;;5079056;28;20492;-85
2023/09/19 01:32:21;;;;;;;0.00;0.00;;;17.00;99.90;;;;;;5083358;28;20494;-85
2023/09/19 01:34:48;;;;;;;0.00;0.00;;;17.00;99.90;;;;;;5092019;28;20192;-83
2023/09/19 01:37:19;;;;;;;0.00;0.00;;;17.00;99.90;;;;;;5085725;28;20957;-83
2023/09/19 01:39:58;;;;;;;0.00;0.00;;;17.00;99.90;;;;;;5068040;28;20943;-84
2023/09/19 01:42:35;;;;;;;0.10;0.10;;;17.00;99.90;;;;;;5077079;28;20430;-84
2023/09/19 01:45:29;;;;;;;0.10;0.10;;;16.90;99.90;;;;;;5077779;28;20447;-83
2023/09/19 01:47:57;;;;;;;0.10;0.10;;;16.90;99.90;;;;;;5093105;28;20518;-86
2023/09/19 01:50:41;;;;;;;0.10;0.10;;;16.90;99.90;;;;;;5083802;28;20517;-84
2023/09/19 01:53:15;;;;;;;0.10;0.10;;;16.90;99.90;;;;;;5084225;28;20938;-84
2023/09/19 01:55:48;;;;;;;0.00;0.00;;;16.90;99.90;;;;;;5089487;28;20446;-83
2023/09/19 01:58:21;;;;;;;0.10;0.10;;;16.80;99.90;;;;;;5090054;28;21013;-84
2023/09/19 02:00:51;;;;;;;0.00;0.00;;;16.80;99.90;;;;;;5079974;28;20538;-84
2023/09/19 02:03:17;;;;;;;0.10;0.10;;;16.80;99.90;;;;;;5087717;28;20432;-85
2023/09/19 02:05:53;;;;;;;0.00;0.00;;;16.80;99.90;;;;;;5087005;28;20951;-83
2023/09/19 02:08:20;;;;;;;0.00;0.00;;;16.80;99.90;;;;;;5053359;28;20193;-84
2023/09/19 02:10:49;;;;;;;0.00;0.00;;;16.70;99.90;;;;;;5093584;28;20466;-84
2023/09/19 02:13:24;;;;;;;0.00;0.00;;;16.70;99.90;;;;;;5087377;28;20451;-86
2023/09/19 02:15:50;;;;;;;0.00;0.00;;;16.50;99.90;;;;;;5068020;28;20536;-85
2023/09/19 02:18:15;;;;;;;0.00;0.00;;;16.40;99.90;;;;;;5083800;28;20451;-84
2023/09/19 02:20:41;;;;;;;0.00;0.00;;;16.30;99.90;;;;;;5069572;28;20196;-83
2023/09/19 02:23:08;;;;;;;0.00;0.00;;;16.20;99.90;;;;;;5097815;28;20736;-80
2023/09/19 02:25:33;;;;;;;0.00;0.00;;;16.10;99.90;;;;;;5098829;28;20447;-81
2023/09/19 02:28:02;;;;;;;0.00;0.00;;;16.00;99.90;;;;;;5088890;28;20447;-81
2023/09/19 02:30:28;;;;;;;0.00;0.00;;;16.00;99.90;;;;;;5087655;28;20451;-83
2023/09/19 02:32:54;;;;;;;0.00;0.00;;;16.00;99.90;;;;;;5082549;28;20443;-82
2023/09/19 02:35:20;;;;;;;0.00;0.00;;;15.90;99.90;;;;;;5084095;28;20973;-84
2023/09/19 02:37:46;;;;;;;0.00;0.00;;;15.80;99.90;;;;;;5086517;28;20181;-83
2023/09/19 02:40:25;;;;;;;0.03;0.03;;;15.80;99.90;;;;;;5086541;28;20439;-83
2023/09/19 02:42:54;;;;;;;0.00;0.00;;;15.80;99.90;;;;;;5087329;28;20484;-82
2023/09/19 02:45:20;;;;;;;0.00;0.00;;;15.80;99.90;;;;;;5089426;28;20442;-83
2023/09/19 02:47:46;;;;;;;0.00;0.00;;;15.70;99.90;;;;;;5089562;28;20447;-82
2023/09/19 02:50:13;;;;;;;0.00;0.00;;;15.70;99.90;;;;;;5076807;28;20688;-83
2023/09/19 02:52:40;;;;;;;0.00;0.00;;;15.70;99.90;;;;;;5085908;28;20941;-83
2023/09/19 02:55:09;;;;;;;0.00;0.00;;;15.60;99.90;;;;;;5092184;28;20422;-84
2023/09/19 02:57:36;;;;;;;0.00;0.00;;;15.60;99.90;;;;;;5073490;28;20443;-83
2023/09/19 03:00:06;;;;;;;0.00;0.00;;;15.60;99.90;;;;;;5079020;28;20485;-84
2023/09/19 03:02:34;;;;;;;0.00;0.00;;;15.60;99.90;;;;;;5074822;28;20920;-83
2023/09/19 03:05:00;;;;;;;0.00;0.00;;;15.60;99.90;;;;;;5077594;28;20934;-82
2023/09/19 03:07:26;;;;;;;0.00;0.00;;;15.60;99.90;;;;;;5093090;28;20524;-81
2023/09/19 03:09:52;;;;;;;0.00;0.00;;;15.60;99.90;;;;;;5088586;28;20226;-83
2023/09/19 03:12:18;;;;;;;0.00;0.00;;;15.60;99.90;;;;;;5102878;28;20181;-82
2023/09/19 03:14:44;;;;;;;0.00;0.00;;;15.60;99.90;;;;;;5074975;28;20450;-83
2023/09/19 03:17:09;;;;;;;0.00;0.00;;;15.60;99.90;;;;;;5090783;28;20176;-83
2023/09/19 03:19:35;;;;;;;0.00;0.00;;;15.60;99.90;;;;;;5094250;28;20191;-82
2023/09/19 03:22:00;;;;;;;0.00;0.00;;;15.70;99.90;;;;;;5098944;28;20189;-83
2023/09/19 03:24:27;;;;;;;0.00;0.00;;;15.70;99.90;;;;;;5090402;28;20698;-83
2023/09/19 03:26:52;;;;;;;0.10;0.10;;;15.70;99.90;;;;;;5090877;28;20181;-82
2023/09/19 03:29:18;;;;;;;0.10;0.10;;;15.70;99.90;;;;;;5090241;28;20477;-82
2023/09/19 03:31:43;;;;;;;0.00;0.00;;;15.70;99.90;;;;;;5088231;28;20825;-84
2023/09/19 03:34:09;;;;;;;0.00;0.00;;;15.70;99.90;;;;;;5090106;28;20185;-81
2023/09/19 03:36:35;;;;;;;0.00;0.00;;;15.70;99.90;;;;;;5072551;28;20218;-83
2023/09/19 03:39:04;;;;;;;0.00;0.00;;;15.60;99.90;;;;;;5084078;28;20268;-81
2023/09/19 03:41:30;;;;;;;0.00;0.00;;;15.60;99.90;;;;;;5093610;28;20441;-82
2023/09/19 03:43:56;;;;;;;0.00;0.00;;;15.60;99.90;;;;;;5090158;28;20439;-83
2023/09/19 03:46:22;;;;;;;0.00;0.00;;;15.60;99.90;;;;;;5087934;28;20453;-82
2023/09/19 03:48:47;;;;;;;0.00;0.00;;;15.50;99.90;;;;;;5092615;28;20455;-82
2023/09/19 03:51:13;;;;;;;0.00;0.00;;;15.50;99.90;;;;;;5089102;28;20840;-80
2023/09/19 03:53:39;;;;;;;0.00;0.00;;;15.50;99.90;;;;;;5089923;28;20189;-83
2023/09/19 03:56:04;;;;;;;0.00;0.00;;;15.40;99.90;;;;;;5087438;28;20192;-82
2023/09/19 03:58:30;;;;;;;0.00;0.00;;;15.40;99.90;;;;;;5092356;28;20216;-83
2023/09/19 04:00:56;;;;;;;0.00;0.00;;;15.50;99.90;;;;;;5087897;28;20283;-83
2023/09/19 04:03:22;;;;;;;0.00;0.00;;;15.50;99.90;;;;;;5089652;28;20173;-82
2023/09/19 04:05:48;;;;;;;0.10;0.10;;;15.50;99.90;;;;;;5073736;28;20960;-84
2023/09/19 04:08:14;;;;;;;0.10;0.10;;;15.40;99.90;;;;;;5087603;28;20189;-83
2023/09/19 04:10:42;;;;;;;0.00;0.00;;;15.30;99.90;;;;;;5087793;28;20192;-81
2023/09/19 04:13:08;;;;;;;0.10;0.10;;;15.20;99.90;;;;;;5080005;28;20431;-81
2023/09/19 04:15:33;;;;;;;0.00;0.00;;;15.10;99.90;;;;;;5085583;28;21027;-83
2023/09/19 04:17:59;;;;;;;0.00;0.00;;;15.10;99.90;;;;;;5074132;28;20177;-83
2023/09/19 04:20:25;;;;;;;0.10;0.10;;;15.10;99.90;;;;;;5070944;28;22717;-80
2023/09/19 04:22:51;;;;;;;0.10;0.10;;;14.80;99.90;;;;;;5091781;28;20661;-80
2023/09/19 04:25:17;;;;;;;0.10;0.10;;;14.50;99.90;;;;;;5088487;28;20178;-80
2023/09/19 04:27:44;;;;;;;0.10;0.10;;;14.30;99.90;;;;;;5104200;28;20258;-78
2023/09/19 04:30:11;;;;;;;0.10;0.10;;;14.10;99.90;;;;;;5066779;28;20486;-80
2023/09/19 04:32:39;;;;;;;0.00;0.00;;;13.90;99.90;;;;;;5084294;28;20438;-78
2023/09/19 04:35:08;;;;;;;0.10;0.10;;;13.70;99.90;;;;;;5081967;28;20527;-79
2023/09/19 04:37:39;;;;;;;0.10;0.10;;;13.60;99.90;;;;;;5095159;28;21024;-79
2023/09/19 04:40:06;;;;;;;0.10;0.10;;;13.60;99.90;;;;;;5090053;28;20480;-79
2023/09/19 04:42:32;;;;;;;0.10;0.10;;;13.50;99.90;;;;;;5112464;28;20843;-79
2023/09/19 04:44:59;;;;;;;0.10;0.10;;;13.50;99.90;;;;;;5091762;28;20966;-80
2023/09/19 04:47:25;;;;;;;0.10;0.10;;;13.60;99.90;;;;;;5088956;28;20177;-80
2023/09/19 04:49:51;;;;;;;0.20;0.20;;;13.60;99.90;;;;;;5071513;28;20884;-79
2023/09/19 04:52:16;;;;;;;0.20;0.20;;;13.60;99.90;;;;;;5093081;28;20530;-80
2023/09/19 04:54:42;;;;;;;0.10;0.10;;;13.70;99.90;;;;;;5094062;28;20200;-80
2023/09/19 04:57:07;;;;;;;0.10;0.10;;;13.80;99.90;;;;;;5100889;28;20177;-80
2023/09/19 04:59:33;;;;;;;0.10;0.10;;;13.90;99.90;;;;;;5073339;28;20458;-81
2023/09/19 05:01:59;;;;;;;0.10;0.10;;;13.90;99.90;;;;;;5086419;28;20181;-80
2023/09/19 05:04:24;;;;;;;0.10;0.10;;;13.90;99.90;;;;;;5085958;28;20649;-80
2023/09/19 05:06:50;;;;;;;0.10;0.10;;;13.90;99.90;;;;;;5071688;28;20184;-81
2023/09/19 05:09:19;;;;;;;0.00;0.00;;;13.90;99.90;;;;;;5100654;28;20321;-80
2023/09/19 05:11:46;;;;;;;0.00;0.00;;;13.90;99.90;;;;;;5087698;28;20439;-79
2023/09/19 05:14:11;;;;;;;0.10;0.10;;;13.90;99.90;;;;;;5081911;28;20499;-78
2023/09/19 05:16:37;;;;;;;0.10;0.10;;;13.90;99.90;;;;;;5088290;28;20447;-79
2023/09/19 05:19:03;;;;;;;0.10;0.10;;;13.90;99.90;;;;;;5084796;28;20192;-79
2023/09/19 05:21:30;;;;;;;0.20;0.20;;;13.90;99.90;;;;;;5090137;28;20179;-81
2023/09/19 05:23:56;;;;;;;0.03;0.03;;;13.90;99.90;;;;;;5095707;28;20229;-82
2023/09/19 05:26:21;;;;;;;0.03;0.03;;;14.00;99.90;;;;;;5070412;28;20521;-81
2023/09/19 05:28:50;;;;;;;0.10;0.10;;;14.00;99.90;;;;;;5087111;28;20624;-81
2023/09/19 05:31:16;;;;;;;0.07;0.07;;;14.00;99.90;;;;;;5082998;28;20527;-83
2023/09/19 05:33:42;;;;;;;0.00;0.00;;;14.00;99.90;;;;;;5087261;28;20431;-82
2023/09/19 05:36:10;;;;;;;0.00;0.00;;;14.00;99.90;;;;;;5064643;28;20446;-81
2023/09/19 05:38:36;;;;;;;0.10;0.10;;;14.00;99.90;;;;;;5087857;28;20172;-81
2023/09/19 05:41:02;;;;;;;0.03;0.03;;;14.00;99.90;;;;;;5096402;28;20446;-79
2023/09/19 05:43:27;;;;;;;0.07;0.07;;;14.00;99.90;;;;;;5073058;28;20437;-81
2023/09/19 05:45:56;;;;;;;0.00;0.00;;;14.00;99.90;;;;;;5080716;28;20291;-82
2023/09/19 05:48:22;;;;;;;0.07;0.07;;;14.00;99.90;;;;;;5082311;28;20189;-79
2023/09/19 05:50:48;;;;;;;0.03;0.03;;;14.00;99.90;;;;;;5087770;28;20531;-83
2023/09/19 05:53:14;;;;;;;0.10;0.10;;;14.00;99.90;;;;;;5066435;28;20760;-81
2023/09/19 05:55:40;;;;;;;0.00;0.00;;;14.00;99.90;;;;;;5087236;28;20459;-82
2023/09/19 05:58:06;;;;;;;0.10;0.10;;;14.00;99.90;;;;;;5085577;28;20173;-81
2023/09/19 06:00:32;;;;;;;0.07;0.07;;;14.00;99.90;;;;;;5084831;28;20475;-80
2023/09/19 06:02:59;;;;;;;0.03;0.03;;;14.00;99.90;;;;;;5089826;28;20209;-78
2023/09/19 06:05:30;;;;;;;0.03;0.03;;;14.00;99.90;;;;;;5078901;28;20185;-80
2023/09/19 06:07:59;;;;;;;0.00;0.00;;;14.10;99.90;;;;;;5083789;28;20442;-79
2023/09/19 06:10:25;;;;;;;0.10;0.10;;;14.10;99.90;;;;;;5081060;28;20478;-81
2023/09/19 06:12:51;;;;;;;0.10;0.10;;;14.10;99.90;;;;;;5105390;28;20529;-80
2023/09/19 06:15:22;;;;;;;0.00;0.00;;;14.10;99.90;;;;;;5084673;28;20660;-80
2023/09/19 06:17:50;;;;;;;0.00;0.00;;;14.20;99.90;;;;;;5075098;28;20185;-81
2023/09/19 06:20:16;;;;;;;0.00;0.00;;;14.20;99.90;;;;;;5084796;28;20465;-80
2023/09/19 06:22:43;;;;;;;0.10;0.10;;;14.10;99.90;;;;;;5095621;28;20444;-81
2023/09/19 06:25:19;;;;;;;0.03;0.03;;;14.20;99.90;;;;;;5096180;28;20525;-80
2023/09/19 06:27:45;;;;;;;0.00;0.00;;;14.20;99.90;;;;;;5072787;28;20443;-81
2023/09/19 06:30:14;;;;;;;0.00;0.00;;;14.30;99.90;;;;;;5081838;28;20478;-81
2023/09/19 06:32:44;;;;;;;0.00;0.00;;;14.30;99.90;;;;;;5072267;28;20439;-79
2023/09/19 06:35:11;;;;;;;0.00;0.00;;;14.40;99.90;;;;;;5092871;28;20482;-80
2023/09/19 06:37:40;;;;;;;0.10;0.10;;;14.50;99.90;;;;;;5098614;28;20437;-80
2023/09/19 06:40:16;;;;;;;0.10;0.10;;;14.60;99.90;;;;;;5089392;28;20550;-79
2023/09/19 06:42:45;;;;;;;0.00;0.00;;;14.60;99.90;;;;;;5092865;28;20481;-80
2023/09/19 06:45:17;;;;;;;0.00;0.00;;;14.70;99.90;;;;;;5092280;28;20443;-78
2023/09/19 06:47:45;;;;;;;0.00;0.00;;;14.70;99.90;;;;;;5089612;28;20450;-80
2023/09/19 06:50:13;;;;;;;0.10;0.10;;;14.80;99.90;;;;;;5087274;28;20493;-81
2023/09/19 06:52:42;;;;;;;0.10;0.10;;;14.70;99.90;;;;;;5084292;28;20449;-80
2023/09/19 06:55:09;;;;;;;0.10;0.10;;;14.70;99.90;;;;;;5088248;28;20444;-80
2023/09/19 06:57:35;;;;;;;0.00;0.00;;;14.80;99.90;;;;;;5088154;28;20442;-80
2023/09/19 07:00:01;;;;;;;0.00;0.00;;;14.80;99.90;;;;;;5092831;28;20473;-78
2023/09/19 07:02:27;;;;;;;0.10;0.10;;;14.80;99.90;;;;;;5095382;28;20176;-81
2023/09/19 07:04:52;;;;;;;0.10;0.10;;;14.80;99.90;;;;;;5090924;28;20452;-77
2023/09/19 07:07:18;;;;;;;0.10;0.10;;;14.80;99.90;;;;;;5088497;28;20719;-79
2023/09/19 07:09:43;;;;;;;0.10;0.10;;;14.70;99.90;;;;;;5093499;28;20264;-80
2023/09/19 07:12:09;;;;;;;0.10;0.10;;;14.70;99.90;;;;;;5093817;28;20177;-79
2023/09/19 07:14:34;;;;;;;0.10;0.10;;;14.70;99.90;;;;;;5093348;28;20246;-80
2023/09/19 07:17:00;;;;;;;0.10;0.10;;;14.80;99.90;;;;;;5086105;28;20194;-80
2023/09/19 07:19:28;;;;;;;0.10;0.10;;;14.80;99.90;;;;;;5074675;28;20178;-82
2023/09/19 07:21:54;;;;;;;0.10;0.10;;;14.80;99.90;;;;;;5081659;28;20189;-84
2023/09/19 07:24:22;;;;;;;0.00;0.00;;;14.80;99.90;;;;;;5109846;28;20951;-78
2023/09/19 07:26:48;;;;;;;0.00;0.00;;;14.80;99.90;;;;;;5096034;28;20189;-82
2023/09/19 07:29:13;;;;;;;0.00;0.00;;;14.80;99.90;;;;;;5090302;28;21063;-80
2023/09/19 07:31:39;;;;;;;0.00;0.00;;;14.90;99.90;;;;;;5084098;28;20435;-79
2023/09/19 07:34:06;;;;;;;0.00;0.00;;;14.90;99.90;;;;;;5096660;28;20249;-82
2023/09/19 07:36:33;;;;;;;0.00;0.00;;;14.90;99.90;;;;;;5106835;28;20176;-85
2023/09/19 07:39:00;;;;;;;0.10;0.10;;;14.90;99.90;;;;;;5103727;28;20438;-81
2023/09/19 07:41:25;;;;;;;0.10;0.10;;;14.90;99.90;;;;;;5089104;28;20443;-81
2023/09/19 07:43:51;;;;;;;0.10;0.10;;;14.90;99.90;;;;;;5066525;28;20440;-81
2023/09/19 07:46:17;;;;;;;0.10;0.10;;;14.90;99.90;;;;;;5090931;28;20169;-82
2023/09/19 07:48:47;;;;;;;0.10;0.10;;;15.00;99.90;;;;;;5089120;28;20478;-79
2023/09/19 07:51:13;;;;;;;0.10;0.10;;;15.00;99.90;;;;;;5070127;28;20250;-81
2023/09/19 07:53:39;;;;;;;0.10;0.10;;;14.90;99.90;;;;;;5062945;28;20443;-81
2023/09/19 07:56:09;;;;;;;0.10;0.10;;;14.90;99.90;;;;;;5068650;28;20446;-83
2023/09/19 07:58:37;;;;;;;0.10;0.10;;;15.00;99.90;;;;;;5075956;28;20233;-80
2023/09/19 08:01:06;;;;;;;0.10;0.10;;;14.90;99.90;;;;;;5091014;28;20443;-79
2023/09/19 08:03:33;;;;;;;0.07;0.07;;;15.00;99.90;;;;;;5084450;28;20808;-84
2023/09/19 08:06:00;;;;;;;0.00;0.00;;;15.00;99.90;;;;;;5101694;28;20838;-81
2023/09/19 08:08:26;;;;;;;0.10;0.10;;;15.00;99.90;;;;;;5088573;28;20503;-79
2023/09/19 08:10:56;;;;;;;0.00;0.00;;;15.10;99.90;;;;;;5070811;28;20477;-81
2023/09/19 08:13:23;;;;;;;0.00;0.00;;;15.20;99.90;;;;;;5087028;28;20459;-81
2023/09/19 08:15:48;;;;;;;0.00;0.00;;;15.50;99.90;;;;;;5090520;28;20495;-81
2023/09/19 08:18:15;;;;;;;0.00;0.00;;;15.40;99.90;;;;;;5074699;28;20522;-81
2023/09/19 08:20:42;;;;;;;0.10;0.10;;;15.40;99.90;;;;;;5082996;28;20196;-82
2023/09/19 08:23:08;;;;;;;0.10;0.10;;;15.50;99.90;;;;;;5061077;28;20450;-84
2023/09/19 08:25:34;;;;;;;0.10;0.10;;;15.60;99.90;;;;;;5077043;28;21221;-84
2023/09/19 08:28:01;;;;;;;0.00;0.00;;;15.60;99.90;;;;;;5078867;28;20805;-81
2023/09/19 08:30:30;;;;;;;0.00;0.00;;;15.70;99.90;;;;;;5069699;28;20489;-89
2023/09/19 08:32:59;;;;;;;0.00;0.00;;;15.70;99.90;;;;;;5084524;28;20946;-81
2023/09/19 08:35:25;;;;;;;0.00;0.00;;;15.60;99.90;;;;;;5089945;28;20443;-80
2023/09/19 08:37:51;;;;;;;0.00;0.00;;;15.50;99.90;;;;;;5088963;28;20446;-82
2023/09/19 08:40:17;;;;;;;0.00;0.00;;;15.60;99.90;;;;;;5071588;28;20264;-83
2023/09/19 08:42:53;;;;;;;0.00;0.00;;;15.70;99.90;;;;;;5087906;28;20197;-88
2023/09/19 08:45:23;;;;;;;0.00;0.00;;;16.00;99.90;;;;;;5088048;28;21623;-88
2023/09/19 08:48:23;;;;;;;0.10;0.10;;;16.10;99.90;;;;;;5100453;28;20445;-91
2023/09/19 08:51:03;;;;;;;0.10;0.10;;;16.50;99.90;;;;;;5066526;28;20559;-84
2023/09/19 08:53:48;;;;;;;0.10;0.10;;;16.40;99.90;;;;;;5087244;28;20498;-85
2023/09/19 08:56:17;;;;;;;0.10;0.10;;;16.30;99.90;;;;;;5086885;28;20465;-86
2023/09/19 08:58:59;;;;;;;0.10;0.10;;;16.30;99.90;;;;;;5087985;28;20574;-86
2023/09/19 09:01:28;;;;;;;0.10;0.10;;;16.40;99.90;;;;;;5092176;28;20435;-86
2023/09/19 09:03:55;;;;;;;0.10;0.10;;;16.60;99.90;;;;;;5085620;28;20515;-89
2023/09/19 09:06:23;;;;;;;0.10;0.10;;;16.60;99.90;;;;;;5096950;28;20842;-85
2023/09/19 09:08:52;;;;;;;0.10;0.10;;;16.40;99.90;;;;;;5085121;28;20521;-86
2023/09/19 09:11:18;;;;;;;0.00;0.00;;;16.20;99.90;;;;;;5078090;28;20451;-85
2023/09/19 09:13:45;;;;;;;0.00;0.00;;;16.10;99.90;;;;;;5087140;28;20867;-84
2023/09/19 09:16:12;;;;;;;0.00;0.00;;;16.10;99.90;;;;;;5087292;28;20565;-85
2023/09/19 09:18:38;;;;;;;0.00;0.00;;;16.00;99.90;;;;;;5083443;28;20439;-83
2023/09/19 09:21:04;;;;;;;0.00;0.00;;;16.00;99.90;;;;;;5078369;28;20751;-85
2023/09/19 09:23:31;;;;;;;0.00;0.00;;;15.90;99.90;;;;;;5088895;28;20431;-86
2023/09/19 09:25:59;;;;;;;0.00;0.00;;;15.90;99.90;;;;;;5088908;28;20510;-84
2023/09/19 09:28:27;;;;;;;0.00;0.00;;;16.00;99.90;;;;;;5075975;28;20534;-84
2023/09/19 09:30:54;;;;;;;0.00;0.00;;;16.10;99.90;;;;;;5069705;28;20449;-84
2023/09/19 09:33:21;;;;;;;0.00;0.00;;;16.30;99.90;;;;;;5091491;28;20487;-84
2023/09/19 09:36:00;;;;;;;0.00;0.00;;;16.40;99.90;;;;;;5079965;28;20478;-86
2023/09/19 09:38:32;;;;;;;0.00;0.00;;;16.50;99.90;;;;;;5091750;28;20790;-85
2023/09/19 09:41:01;;;;;;;0.00;0.00;;;16.70;99.90;;;;;;5104949;28;20458;-84
2023/09/19 09:43:30;;;;;;;0.00;0.00;;;16.70;99.90;;;;;;5089719;28;20443;-85
2023/09/19 09:46:58;;;;;;;0.00;0.00;;;16.80;99.90;;;;;;5081105;28;20432;-84
2023/09/19 09:52:16;;;;;;;0.00;0.00;;;16.90;99.90;;;;;;5104189;28;20520;-83
2023/09/19 09:55:06;;;;;;;0.00;0.00;;;16.80;99.90;;;;;;5076406;28;20440;-85
2023/09/19 09:57:33;;;;;;;0.00;0.00;;;16.80;99.90;;;;;;5079543;28;20443;-82
2023/09/19 10:00:42;;;;;;;0.00;0.00;;;16.70;99.90;;;;;;5095267;28;20492;-86
2023/09/19 10:02:52;;;;;;;0.00;0.00;;;16.70;99.90;;;;;;5085541;28;21459;-84
2023/09/19 10:08:04;;;;;;;0.00;0.00;;;16.80;99.90;;;;;;5083709;28;20205;-87
2023/09/19 10:13:15;;;;;;;0.00;0.00;;;17.30;99.90;;;;;;5098931;28;20439;-85
2023/09/19 10:15:50;;;;;;;0.00;0.00;;;17.70;99.90;;;;;;5076395;28;20931;-81
2023/09/19 10:18:20;;;;;;;0.00;0.00;;;17.70;99.90;;;;;;5088858;28;20427;-84
2023/09/19 10:20:47;;;;;;;0.00;0.00;;;18.00;99.90;;;;;;5070202;28;20445;-81
2023/09/19 10:23:13;;;;;;;0.00;0.00;;;18.20;99.90;;;;;;5077098;28;20946;-82
2023/09/19 10:25:43;;;;;;;0.00;0.00;;;18.20;99.90;;;;;;5085519;28;20447;-80
2023/09/19 10:28:10;;;;;;;0.00;0.00;;;18.10;99.90;;;;;;5084974;28;20185;-84
2023/09/19 10:30:44;;;;;;;0.00;0.00;;;18.10;99.90;;;;;;5086097;28;20474;-85
2023/09/19 10:33:11;;;;;;;0.00;0.00;;;17.90;99.90;;;;;;5090199;28;20545;-81
2023/09/19 10:35:42;;;;;;;0.00;0.00;;;18.10;99.90;;;;;;5087885;28;20451;-82
2023/09/19 10:38:10;;;;;;;0.00;0.00;;;18.10;99.90;;;;;;5106410;28;21044;-80
2023/09/19 10:40:40;;;;;;;0.00;0.00;;;18.20;99.90;;;;;;5103337;28;20511;-79
2023/09/19 10:43:06;;;;;;;0.00;0.00;;;18.40;99.90;;;;;;5105784;28;20438;-82
2023/09/19 10:45:34;;;;;;;0.00;0.00;;;18.10;99.90;;;;;;5087925;28;20461;-81
2023/09/19 10:48:03;;;;;;;0.00;0.00;;;18.00;99.90;;;;;;5085172;28;20914;-81
2023/09/19 10:50:36;;;;;;;0.00;0.00;;;17.80;99.90;;;;;;5104160;28;20493;-83
2023/09/19 10:53:08;;;;;;;0.00;0.00;;;17.90;99.90;;;;;;5075191;28;20515;-81
2023/09/19 10:55:35;;;;;;;0.00;0.00;;;18.40;99.90;;;;;;5091422;28;20442;-80
2023/09/19 10:58:03;;;;;;;0.00;0.00;;;18.80;99.90;;;;;;5087893;28;20443;-84
2023/09/19 11:00:34;;;;;;;0.00;0.00;;;19.00;99.90;;;;;;5083255;28;20458;-81
2023/09/19 11:03:12;;;;;;;0.00;0.00;;;18.40;99.90;;;;;;5102970;28;20482;-84
2023/09/19 11:05:59;;;;;;;0.00;0.00;;;18.60;99.90;;;;;;5108356;28;20513;-83
2023/09/19 11:08:26;;;;;;;0.00;0.00;;;19.10;99.90;;;;;;5092510;28;20435;-83
2023/09/19 11:10:51;;;;;;;0.00;0.00;;;19.30;99.90;;;;;;5093138;28;20458;-82
2023/09/19 11:13:30;;;;;;;0.00;0.00;;;19.40;99.90;;;;;;5091811;28;20439;-81
2023/09/19 11:15:59;;;;;;;0.00;0.00;;;19.20;99.90;;;;;;5088912;28;20596;-82
2023/09/19 11:18:40;;;;;;;0.00;0.00;;;18.90;99.90;;;;;;5094110;28;20435;-83
2023/09/19 11:21:29;;;;;;;0.00;0.00;;;18.70;99.90;;;;;;5091973;28;20446;-81
2023/09/19 11:24:10;;;;;;;0.00;0.00;;;18.60;99.90;;;;;;5093440;28;20439;-82
2023/09/19 11:26:47;;;;;;;0.00;0.00;;;18.70;99.90;;;;;;5096565;28;20541;-83
2023/09/19 11:29:30;;;;;;;0.00;0.00;;;18.90;99.90;;;;;;5100309;28;20516;-84
2023/09/19 11:31:56;;;;;;;0.00;0.00;;;19.20;99.90;;;;;;5104521;28;20510;-79
2023/09/19 11:34:36;;;;;;;0.00;0.00;;;19.30;99.90;;;;;;5103445;28;20447;-81
2023/09/19 11:37:04;;;;;;;0.00;0.00;;;18.90;99.90;;;;;;5077505;28;20442;-82
2023/09/19 11:39:30;;;;;;;0.00;0.00;;;18.40;99.90;;;;;;5094547;28;20793;-81
2023/09/19 11:42:00;;;;;;;0.00;0.00;;;18.20;99.90;;;;;;5111954;28;20426;-80
2023/09/19 11:44:26;;;;;;;0.00;0.00;;;18.40;99.90;;;;;;5105056;28;20471;-82
2023/09/19 11:46:58;;;;;;;0.00;0.00;;;18.20;99.90;;;;;;5092592;28;20930;-82
2023/09/19 11:49:32;;;;;;;0.00;0.00;;;18.20;99.90;;;;;;5092333;28;20502;-83
2023/09/19 11:52:05;;;;;;;0.00;0.00;;;18.20;99.90;;;;;;5080994;28;20510;-84
2023/09/19 11:54:32;;;;;;;0.00;0.00;;;18.20;99.90;;;;;;5090432;28;20430;-81
2023/09/19 11:56:59;;;;;;;0.00;0.00;;;18.50;99.90;;;;;;5082934;28;20446;-81
2023/09/19 11:59:30;;;;;;;0.00;0.00;;;18.90;99.90;;;;;;5113168;28;20884;-80
2023/09/19 12:02:00;;;;;;;0.00;0.00;;;18.90;99.90;;;;;;5106336;28;20433;-82
2023/09/19 12:04:41;;;;;;;0.00;0.00;;;18.80;99.90;;;;;;5104103;28;20958;-82
2023/09/19 12:07:15;;;;;;;0.00;0.00;;;19.10;99.90;;;;;;5102797;28;20446;-80
2023/09/19 12:09:47;;;;;;;0.00;0.00;;;19.60;99.90;;;;;;5100422;28;20485;-80
2023/09/19 12:12:29;;;;;;;0.00;0.00;;;19.40;99.90;;;;;;5090063;28;20495;-81
2023/09/19 12:14:58;;;;;;;0.00;0.00;;;19.30;99.90;;;;;;5112046;28;20522;-81
2023/09/19 12:17:37;;;;;;;0.00;0.00;;;19.60;99.90;;;;;;5091316;28;20468;-81
2023/09/19 12:20:12;;;;;;;0.00;0.00;;;19.60;99.90;;;;;;5110814;28;20541;-80
2023/09/19 12:22:46;;;;;;;0.00;0.00;;;19.40;99.90;;;;;;5091619;28;20524;-81
2023/09/19 12:25:16;;;;;;;0.00;0.00;;;19.10;99.90;;;;;;5070353;28;21007;-80
2023/09/19 12:27:52;;;;;;;0.00;0.00;;;18.80;99.90;;;;;;5077802;28;20446;-80
2023/09/19 12:30:20;;;;;;;0.00;0.00;;;18.70;99.90;;;;;;5102152;28;20481;-80
2023/09/19 12:32:47;;;;;;;0.00;0.00;;;18.60;99.90;;;;;;5091996;28;20435;-80
2023/09/19 12:35:28;;;;;;;0.00;0.00;;;18.60;99.90;;;;;;5112590;28;20422;-80
2023/09/19 12:37:55;;;;;;;0.00;0.00;;;18.50;99.90;;;;;;5089428;28;20997;-80
2023/09/19 12:40:27;;;;;;;0.00;0.00;;;18.30;99.90;;;;;;5091724;28;20518;-80
2023/09/19 12:43:04;;;;;;;0.00;0.00;;;18.20;99.90;;;;;;5094634;28;20434;-80
2023/09/19 12:45:35;;;;;;;0.00;0.00;;;18.20;99.90;;;;;;5102209;28;20535;-82
2023/09/19 12:48:20;;;;;;;0.00;0.00;;;18.40;99.90;;;;;;5083966;28;20939;-78
2023/09/19 12:51:12;;;;;;;0.00;0.00;;;18.40;99.90;;;;;;5078348;28;20475;-79
2023/09/19 12:53:43;;;;;;;0.00;0.00;;;18.20;99.90;;;;;;5092273;28;20419;-82
2023/09/19 12:56:09;;;;;;;0.00;0.00;;;18.60;99.90;;;;;;5074363;28;20428;-80
2023/09/19 12:58:53;;;;;;;0.00;0.00;;;18.60;99.90;;;;;;5102916;28;20543;-81
2023/09/19 13:01:19;;;;;;;0.00;0.00;;;18.60;99.90;;;;;;5079779;28;20866;-81
2023/09/19 13:03:45;;;;;;;0.00;0.00;;;18.60;99.90;;;;;;5099261;28;20435;-81
2023/09/19 13:06:12;;;;;;;0.00;0.00;;;18.60;99.90;;;;;;5070327;28;20193;-80
2023/09/19 13:08:38;;;;;;;0.00;0.00;;;18.80;99.90;;;;;;5076606;28;20438;-81